Hurlburt Field
KHRT : rendu visible

Aérodrome :











RETROUVEZ-NOUS SUR...

 
LOGIN :

S'inscrire | Disclaimer

   EN    FR    IT 

 









Légende :    VFR   VFR Marginal   IFR   IFR Intensif   IFR Très Intensif
Visi : 
Plafond : 
>= 8 km
>= 3000ft
5 à 8 km
1000 à 3000 ft
1500m à 5 km
500 à 1000 ft
800 à 1500m
200 à 500 ft
< 800m
< 200 ft
Symboles :   Orages  Brouillard  Fortes neiges  Fortes précipitations  Vent > 20 kt






- Altitude de l'aérodrome : 38 ft


KHRT - Hurlburt Field

DERNIER METAR :
  • 281356Z 01005KT 10SM CLR 07/06 A3005 RMK AO2A SLP178 T00710062 $

METARs EXPIRÉS :
  • 281256Z AUTO 36005KT 10SM CLR 03/02 A3005 RMK AO2 SLP178 T00320022 $
  • 281156Z 36004KT 10SM CLR 03/02 A3003 RMK AO2A SLP171 70001 T00320022 10052 20030 53007 $

TAF TAF KHRT
Valide du 28 à 10h jusqu'au 29 à 16h UTC


281000Z 2810/2916 02006KT 9999 SKC QNH3000INS
BECMG 2820/2821 08012KT 9999 FEW200 QNH2999INS
BECMG 2901/2902 VRB06KT 9999 FEW150 QNH2997INS
BECMG 2909/2910 11012KT 9999 BKN100 621008 QNH2997INS
BECMG 2914/2915 10012G18KT 6000 SHRA BKN020 OVC050 620909 QNH2995INS TX17/2819Z TN03/2811Z



MET'MAP, la Météo Aéronautique d'un coup d'oeil ! - Copyright ORBIFLY Décembre 2007 - Disclaimer

ORBIFLY MET'MAP TEAM :

Programmation & Développement : Alexandra Zaïnal
Sur une idée originale de : Baudouin d'Aumeries
Assistance à la programmation : Marc-Olivier Méhu
Soutien technique & logistique : Manuel Goepfert

Contact : metmap@orbifly.com




SOURCES & CREDITS :

   NOAA       Earth
Advisory